Bookmark and Share
Track history (hours):
 

Pietro Novelli

Last reported at 2014-Apr-23 19:06 UTC. Time now 2014-Apr-24 06:21 UTC.
Position N 38°13' E 015°15'.

Length 91 m; draft 3.8 m.

Type: Other ship. MMSI: 247000300.

NotesDate/timePositionNaut miles runAvg speedWind from/ knotsBaromVisibWave heightAir tempDewpointWater temp
2014-Apr-23 19:06N 38°13' E 015°15'611.1
2014-Apr-23 18:33N 38°18' E 015°11'9 0.8
2014-Apr-23 06:26N 38°24' E 015°02'15 1.2
2014-Apr-22 17:33N 38°13' E 015°15'1212.1
2014-Apr-22 16:32N 38°22' E 015°04'8 0.9
2014-Apr-22 07:27N 38°28' E 014°57'4 3.9
2014-Apr-22 06:28N 38°25' E 014°60'1213.5
2014-Apr-22 05:33N 38°18' E 015°13'5 5.1
2014-Apr-22 04:33N 38°13' E 015°15'4 0.3
2014-Apr-21 17:33N 38°17' E 015°14'12 1.1
2014-Apr-21 06:24N 38°24' E 015°02'1113.2
2014-Apr-21 05:33N 38°17' E 015°14'4 4.4
2014-Apr-21 04:33N 38°13' E 015°15'0 0.0
2014-Apr-21 03:33N 38°13' E 015°15'0 0.0
2014-Apr-21 02:33N 38°13' E 015°15'0 0.0
2014-Apr-21 01:33N 38°13' E 015°15'0 0.0
2014-Apr-21 00:33N 38°13' E 015°15'0 0.0
2014-Apr-20 23:33N 38°13' E 015°15'0 0.0
2014-Apr-20 22:33N 38°13' E 015°15'0 0.0
2014-Apr-20 21:33N 38°13' E 015°15'0 0.0
2014-Apr-20 20:33N 38°13' E 015°15'0 0.0
2014-Apr-20 19:33N 38°13' E 015°15'0 0.0
2014-Apr-20 18:33N 38°13' E 015°15'0 0.1
2014-Apr-20 17:33N 38°13' E 015°15'1411.4
2014-Apr-20 16:20N 38°23' E 015°02'2 0.2
2014-Apr-20 06:18N 38°23' E 015°05'1014.1
2014-Apr-20 05:34N 38°16' E 015°15'3 0.1
2014-Apr-19 02:29N 38°13' E 015°15'0 0.0
2014-Apr-19 01:29N 38°13' E 015°15'0 0.0
2014-Apr-19 00:29N 38°13' E 015°15'0 0.0
2014-Apr-18 23:30N 38°13' E 015°15'0 0.0
2014-Apr-18 22:30N 38°13' E 015°15'0 0.0
2014-Apr-18 21:30N 38°13' E 015°15'0 0.0
2014-Apr-18 20:29N 38°13' E 015°15'0 0.0
2014-Apr-18 19:30N 38°13' E 015°15'0 0.2
2014-Apr-18 18:33N 38°13' E 015°15'5 5.3
2014-Apr-18 17:33N 38°18' E 015°13'1510.9
2014-Apr-18 16:12N 38°27' E 014°58'5 0.5
2014-Apr-18 06:26N 38°23' E 015°02'1213.1
2014-Apr-18 05:33N 38°17' E 015°15'4 3.8
2014-Apr-18 04:33N 38°13' E 015°15'0 0.0
2014-Apr-18 03:33N 38°13' E 015°15'0 0.0
2014-Apr-18 02:33N 38°13' E 015°15'0 0.0
2014-Apr-18 01:33N 38°13' E 015°15'0 0.0
2014-Apr-18 00:33N 38°13' E 015°15'0 0.0
2014-Apr-17 23:33N 38°13' E 015°15'0 0.0
2014-Apr-17 22:33N 38°13' E 015°15'0 0.0
2014-Apr-17 21:33N 38°13' E 015°15'2 1.9
2014-Apr-17 20:33N 38°15' E 015°16'  

Dump ship's entire track history

sailing weather and tide predictions

Pietro Novelli — IOTQ — position and weather